sensor_id;sensor_type;location;lat;lon;timestamp;P1;durP1;ratioP1;P2;durP2;ratioP2
41466;SDS011;27205;53.690;19.948;2023-03-01T00:00:03;9.80;;;9.00;;
41466;SDS011;27205;53.690;19.948;2023-03-01T00:05:27;11.20;;;10.40;;
41466;SDS011;27205;53.690;19.948;2023-03-01T00:10:31;9.30;;;8.50;;
41466;SDS011;27205;53.690;19.948;2023-03-01T00:15:37;10.50;;;9.60;;
41466;SDS011;27205;53.690;19.948;2023-03-01T00:20:48;10.10;;;9.40;;
41466;SDS011;27205;53.690;19.948;2023-03-01T00:25:53;11.60;;;10.70;;
41466;SDS011;27205;53.690;19.948;2023-03-01T00:31:00;12.10;;;11.10;;
41466;SDS011;27205;53.690;19.948;2023-03-01T00:36:07;12.40;;;11.50;;
41466;SDS011;27205;53.690;19.948;2023-03-01T00:41:14;13.70;;;12.50;;
41466;SDS011;27205;53.690;19.948;2023-03-01T00:46:20;10.70;;;9.90;;
41466;SDS011;27205;53.690;19.948;2023-03-01T00:51:26;9.20;;;8.40;;
41466;SDS011;27205;53.690;19.948;2023-03-01T00:56:31;11.60;;;10.60;;
41466;SDS011;27205;53.690;19.948;2023-03-01T01:01:35;11.70;;;10.80;;
41466;SDS011;27205;53.690;19.948;2023-03-01T01:06:42;10.30;;;9.50;;
41466;SDS011;27205;53.690;19.948;2023-03-01T01:11:50;11.30;;;10.40;;
41466;SDS011;27205;53.690;19.948;2023-03-01T01:16:54;11.20;;;10.30;;
41466;SDS011;27205;53.690;19.948;2023-03-01T01:21:58;10.60;;;9.70;;
41466;SDS011;27205;53.690;19.948;2023-03-01T01:27:01;12.00;;;11.10;;
41466;SDS011;27205;53.690;19.948;2023-03-01T01:32:05;10.60;;;9.80;;
41466;SDS011;27205;53.690;19.948;2023-03-01T01:37:08;11.20;;;10.30;;
41466;SDS011;27205;53.690;19.948;2023-03-01T01:42:15;11.40;;;10.40;;
41466;SDS011;27205;53.690;19.948;2023-03-01T01:47:20;10.80;;;10.00;;
41466;SDS011;27205;53.690;19.948;2023-03-01T01:52:34;11.20;;;10.30;;
41466;SDS011;27205;53.690;19.948;2023-03-01T01:57:41;11.50;;;10.60;;
41466;SDS011;27205;53.690;19.948;2023-03-01T02:02:48;11.00;;;10.10;;
41466;SDS011;27205;53.690;19.948;2023-03-01T02:07:55;10.50;;;9.60;;
41466;SDS011;27205;53.690;19.948;2023-03-01T02:13:01;12.10;;;11.10;;
41466;SDS011;27205;53.690;19.948;2023-03-01T02:18:07;12.10;;;11.10;;
41466;SDS011;27205;53.690;19.948;2023-03-01T02:23:12;11.20;;;10.40;;
41466;SDS011;27205;53.690;19.948;2023-03-01T02:33:19;12.20;;;11.20;;
41466;SDS011;27205;53.690;19.948;2023-03-01T02:38:23;12.30;;;11.30;;
41466;SDS011;27205;53.690;19.948;2023-03-01T02:43:29;11.40;;;10.40;;
41466;SDS011;27205;53.690;19.948;2023-03-01T02:48:45;13.30;;;12.20;;
41466;SDS011;27205;53.690;19.948;2023-03-01T02:59:03;11.30;;;10.40;;
41466;SDS011;27205;53.690;19.948;2023-03-01T03:04:11;10.90;;;10.00;;
41466;SDS011;27205;53.690;19.948;2023-03-01T03:09:20;10.40;;;9.60;;
41466;SDS011;27205;53.690;19.948;2023-03-01T03:14:24;11.20;;;10.30;;
41466;SDS011;27205;53.690;19.948;2023-03-01T03:19:27;12.00;;;11.00;;
41466;SDS011;27205;53.690;19.948;2023-03-01T03:24:31;11.10;;;10.30;;
41466;SDS011;27205;53.690;19.948;2023-03-01T03:29:41;10.80;;;10.00;;
41466;SDS011;27205;53.690;19.948;2023-03-01T03:34:44;11.50;;;10.60;;
41466;SDS011;27205;53.690;19.948;2023-03-01T03:39:48;12.50;;;11.50;;
41466;SDS011;27205;53.690;19.948;2023-03-01T03:44:52;13.30;;;11.90;;
41466;SDS011;27205;53.690;19.948;2023-03-01T03:49:55;12.60;;;11.60;;
41466;SDS011;27205;53.690;19.948;2023-03-01T03:54:59;12.50;;;11.60;;
41466;SDS011;27205;53.690;19.948;2023-03-01T04:00:02;9.20;;;8.40;;
41466;SDS011;27205;53.690;19.948;2023-03-01T04:05:08;12.60;;;11.60;;
41466;SDS011;27205;53.690;19.948;2023-03-01T04:10:15;12.20;;;11.20;;
41466;SDS011;27205;53.690;19.948;2023-03-01T04:15:20;13.10;;;12.00;;
41466;SDS011;27205;53.690;19.948;2023-03-01T04:20:24;15.70;;;14.20;;
41466;SDS011;27205;53.690;19.948;2023-03-01T04:25:29;15.20;;;13.60;;
41466;SDS011;27205;53.690;19.948;2023-03-01T04:30:33;13.90;;;12.70;;
41466;SDS011;27205;53.690;19.948;2023-03-01T04:35:38;17.60;;;16.00;;
41466;SDS011;27205;53.690;19.948;2023-03-01T04:40:43;21.50;;;19.50;;
41466;SDS011;27205;53.690;19.948;2023-03-01T04:45:47;23.00;;;20.70;;
41466;SDS011;27205;53.690;19.948;2023-03-01T04:50:50;20.10;;;18.30;;
41466;SDS011;27205;53.690;19.948;2023-03-01T04:55:55;13.60;;;12.50;;
41466;SDS011;27205;53.690;19.948;2023-03-01T05:00:59;11.90;;;10.90;;
41466;SDS011;27205;53.690;19.948;2023-03-01T05:06:03;13.00;;;11.90;;
41466;SDS011;27205;53.690;19.948;2023-03-01T05:11:06;12.20;;;11.10;;
41466;SDS011;27205;53.690;19.948;2023-03-01T05:16:13;10.30;;;9.40;;
41466;SDS011;27205;53.690;19.948;2023-03-01T05:21:17;11.80;;;10.70;;
41466;SDS011;27205;53.690;19.948;2023-03-01T05:26:20;12.90;;;11.80;;
41466;SDS011;27205;53.690;19.948;2023-03-01T05:31:31;28.10;;;22.80;;
41466;SDS011;27205;53.690;19.948;2023-03-01T05:36:35;23.00;;;20.80;;
41466;SDS011;27205;53.690;19.948;2023-03-01T05:41:38;20.80;;;18.70;;
41466;SDS011;27205;53.690;19.948;2023-03-01T05:46:43;16.70;;;15.10;;
41466;SDS011;27205;53.690;19.948;2023-03-01T05:51:48;11.30;;;10.40;;
41466;SDS011;27205;53.690;19.948;2023-03-01T05:56:53;10.30;;;9.30;;
41466;SDS011;27205;53.690;19.948;2023-03-01T06:01:57;11.80;;;10.70;;
41466;SDS011;27205;53.690;19.948;2023-03-01T06:07:01;12.10;;;11.10;;
41466;SDS011;27205;53.690;19.948;2023-03-01T06:12:04;11.10;;;10.20;;
41466;SDS011;27205;53.690;19.948;2023-03-01T06:17:08;11.10;;;10.00;;
41466;SDS011;27205;53.690;19.948;2023-03-01T06:22:12;11.10;;;10.10;;
41466;SDS011;27205;53.690;19.948;2023-03-01T06:27:16;13.00;;;9.80;;
41466;SDS011;27205;53.690;19.948;2023-03-01T06:32:19;11.20;;;10.20;;
41466;SDS011;27205;53.690;19.948;2023-03-01T06:37:24;15.00;;;13.60;;
41466;SDS011;27205;53.690;19.948;2023-03-01T06:42:28;19.80;;;17.80;;
41466;SDS011;27205;53.690;19.948;2023-03-01T06:47:32;18.70;;;16.60;;
41466;SDS011;27205;53.690;19.948;2023-03-01T06:57:40;15.20;;;12.60;;
41466;SDS011;27205;53.690;19.948;2023-03-01T07:02:43;13.30;;;12.00;;
41466;SDS011;27205;53.690;19.948;2023-03-01T07:07:47;13.90;;;12.60;;
41466;SDS011;27205;53.690;19.948;2023-03-01T07:12:54;16.70;;;15.10;;
41466;SDS011;27205;53.690;19.948;2023-03-01T07:17:58;18.40;;;16.60;;
41466;SDS011;27205;53.690;19.948;2023-03-01T07:23:02;16.50;;;14.70;;
41466;SDS011;27205;53.690;19.948;2023-03-01T07:28:05;14.30;;;12.90;;
41466;SDS011;27205;53.690;19.948;2023-03-01T07:33:09;14.00;;;12.70;;
41466;SDS011;27205;53.690;19.948;2023-03-01T07:38:12;15.10;;;13.60;;
41466;SDS011;27205;53.690;19.948;2023-03-01T07:43:16;16.30;;;14.80;;
41466;SDS011;27205;53.690;19.948;2023-03-01T07:48:20;13.30;;;12.10;;
41466;SDS011;27205;53.690;19.948;2023-03-01T07:53:23;17.00;;;15.50;;
41466;SDS011;27205;53.690;19.948;2023-03-01T07:58:27;15.30;;;14.00;;
41466;SDS011;27205;53.690;19.948;2023-03-01T08:03:30;14.60;;;13.30;;
41466;SDS011;27205;53.690;19.948;2023-03-01T08:08:34;14.80;;;13.40;;
41466;SDS011;27205;53.690;19.948;2023-03-01T08:13:38;15.70;;;14.20;;
41466;SDS011;27205;53.690;19.948;2023-03-01T08:18:42;18.60;;;16.80;;
41466;SDS011;27205;53.690;19.948;2023-03-01T08:23:46;17.40;;;15.70;;
41466;SDS011;27205;53.690;19.948;2023-03-01T08:28:49;16.00;;;14.30;;
41466;SDS011;27205;53.690;19.948;2023-03-01T08:33:54;16.80;;;15.20;;
41466;SDS011;27205;53.690;19.948;2023-03-01T08:39:00;14.20;;;12.80;;
41466;SDS011;27205;53.690;19.948;2023-03-01T08:44:05;10.50;;;9.50;;
41466;SDS011;27205;53.690;19.948;2023-03-01T08:49:10;14.30;;;13.10;;
41466;SDS011;27205;53.690;19.948;2023-03-01T08:54:17;14.00;;;12.40;;
41466;SDS011;27205;53.690;19.948;2023-03-01T08:59:21;11.30;;;10.20;;
41466;SDS011;27205;53.690;19.948;2023-03-01T09:04:25;13.60;;;12.40;;
41466;SDS011;27205;53.690;19.948;2023-03-01T09:09:28;12.30;;;11.20;;
41466;SDS011;27205;53.690;19.948;2023-03-01T09:14:32;12.70;;;11.60;;
41466;SDS011;27205;53.690;19.948;2023-03-01T09:19:36;14.90;;;13.50;;
41466;SDS011;27205;53.690;19.948;2023-03-01T09:24:39;13.20;;;12.00;;
41466;SDS011;27205;53.690;19.948;2023-03-01T09:29:43;10.30;;;9.40;;
41466;SDS011;27205;53.690;19.948;2023-03-01T09:34:47;9.80;;;8.90;;
41466;SDS011;27205;53.690;19.948;2023-03-01T09:40:14;8.70;;;8.00;;
41466;SDS011;27205;53.690;19.948;2023-03-01T09:45:33;10.20;;;9.50;;
41466;SDS011;27205;53.690;19.948;2023-03-01T09:50:39;10.50;;;9.60;;
41466;SDS011;27205;53.690;19.948;2023-03-01T09:55:51;14.10;;;12.90;;
41466;SDS011;27205;53.690;19.948;2023-03-01T10:06:24;12.00;;;10.40;;
41466;SDS011;27205;53.690;19.948;2023-03-01T10:11:38;11.00;;;10.10;;
41466;SDS011;27205;53.690;19.948;2023-03-01T10:16:58;11.40;;;10.50;;
41466;SDS011;27205;53.690;19.948;2023-03-01T10:22:24;10.20;;;9.40;;
41466;SDS011;27205;53.690;19.948;2023-03-01T10:27:35;12.90;;;11.80;;
41466;SDS011;27205;53.690;19.948;2023-03-01T10:32:45;13.60;;;12.30;;
41466;SDS011;27205;53.690;19.948;2023-03-01T10:37:58;20.80;;;18.80;;
41466;SDS011;27205;53.690;19.948;2023-03-01T10:43:05;19.00;;;17.10;;
41466;SDS011;27205;53.690;19.948;2023-03-01T10:48:13;18.90;;;15.10;;
41466;SDS011;27205;53.690;19.948;2023-03-01T10:53:41;15.70;;;14.30;;
41466;SDS011;27205;53.690;19.948;2023-03-01T11:09:20;10.70;;;9.80;;
41466;SDS011;27205;53.690;19.948;2023-03-01T11:14:26;11.60;;;10.60;;
41466;SDS011;27205;53.690;19.948;2023-03-01T11:19:34;9.50;;;8.10;;
41466;SDS011;27205;53.690;19.948;2023-03-01T11:24:48;11.40;;;9.10;;
41466;SDS011;27205;53.690;19.948;2023-03-01T11:35:32;9.40;;;8.50;;
41466;SDS011;27205;53.690;19.948;2023-03-01T11:56:47;10.50;;;9.60;;
41466;SDS011;27205;53.690;19.948;2023-03-01T12:02:07;11.40;;;9.50;;
41466;SDS011;27205;53.690;19.948;2023-03-01T12:46:28;5.50;;;5.20;;
41466;SDS011;27205;53.690;19.948;2023-03-01T12:51:46;5.90;;;5.50;;
41466;SDS011;27205;53.690;19.948;2023-03-01T12:57:15;8.00;;;5.20;;
41466;SDS011;27205;53.690;19.948;2023-03-01T13:02:33;4.90;;;4.60;;
41466;SDS011;27205;53.690;19.948;2023-03-01T13:07:50;5.70;;;5.20;;
41466;SDS011;27205;53.690;19.948;2023-03-01T13:13:02;5.90;;;5.50;;
41466;SDS011;27205;53.690;19.948;2023-03-01T13:43:58;5.30;;;4.90;;
41466;SDS011;27205;53.690;19.948;2023-03-01T13:49:02;8.50;;;5.50;;
41466;SDS011;27205;53.690;19.948;2023-03-01T13:54:09;6.40;;;5.90;;
41466;SDS011;27205;53.690;19.948;2023-03-01T13:59:16;5.70;;;5.30;;
41466;SDS011;27205;53.690;19.948;2023-03-01T14:04:23;5.20;;;4.70;;
41466;SDS011;27205;53.690;19.948;2023-03-01T14:09:41;5.30;;;4.90;;
41466;SDS011;27205;53.690;19.948;2023-03-01T14:14:59;4.00;;;3.70;;
41466;SDS011;27205;53.690;19.948;2023-03-01T14:20:09;5.70;;;5.30;;
41466;SDS011;27205;53.690;19.948;2023-03-01T14:30:34;5.20;;;4.80;;
41466;SDS011;27205;53.690;19.948;2023-03-01T14:35:41;5.00;;;4.60;;
41466;SDS011;27205;53.690;19.948;2023-03-01T14:40:45;4.50;;;4.20;;
41466;SDS011;27205;53.690;19.948;2023-03-01T14:45:49;5.40;;;4.90;;
41466;SDS011;27205;53.690;19.948;2023-03-01T14:50:54;5.10;;;4.70;;
41466;SDS011;27205;53.690;19.948;2023-03-01T14:56:01;5.20;;;4.80;;
41466;SDS011;27205;53.690;19.948;2023-03-01T15:01:05;5.50;;;5.00;;
41466;SDS011;27205;53.690;19.948;2023-03-01T15:06:11;6.00;;;5.40;;
41466;SDS011;27205;53.690;19.948;2023-03-01T15:11:31;4.20;;;3.90;;
41466;SDS011;27205;53.690;19.948;2023-03-01T15:16:36;4.90;;;4.60;;
41466;SDS011;27205;53.690;19.948;2023-03-01T15:21:44;5.70;;;5.20;;
41466;SDS011;27205;53.690;19.948;2023-03-01T15:37:32;6.20;;;5.80;;
41466;SDS011;27205;53.690;19.948;2023-03-01T15:42:55;6.30;;;5.70;;
41466;SDS011;27205;53.690;19.948;2023-03-01T15:48:03;6.20;;;5.80;;
41466;SDS011;27205;53.690;19.948;2023-03-01T15:53:13;11.80;;;11.00;;
41466;SDS011;27205;53.690;19.948;2023-03-01T15:58:19;10.20;;;9.30;;
41466;SDS011;27205;53.690;19.948;2023-03-01T16:03:26;10.40;;;9.50;;
41466;SDS011;27205;53.690;19.948;2023-03-01T16:08:29;12.30;;;11.30;;
41466;SDS011;27205;53.690;19.948;2023-03-01T16:18:36;12.10;;;11.30;;
41466;SDS011;27205;53.690;19.948;2023-03-01T16:23:42;9.90;;;9.10;;
41466;SDS011;27205;53.690;19.948;2023-03-01T16:28:46;9.10;;;8.50;;
41466;SDS011;27205;53.690;19.948;2023-03-01T16:33:50;12.10;;;11.30;;
41466;SDS011;27205;53.690;19.948;2023-03-01T16:38:57;10.90;;;10.10;;
41466;SDS011;27205;53.690;19.948;2023-03-01T16:44:03;10.10;;;9.50;;
41466;SDS011;27205;53.690;19.948;2023-03-01T16:49:07;48.40;;;45.50;;
41466;SDS011;27205;53.690;19.948;2023-03-01T16:54:10;19.90;;;18.60;;
41466;SDS011;27205;53.690;19.948;2023-03-01T16:59:14;7.30;;;6.80;;
41466;SDS011;27205;53.690;19.948;2023-03-01T17:04:18;31.70;;;29.40;;
41466;SDS011;27205;53.690;19.948;2023-03-01T17:09:22;17.30;;;16.20;;
41466;SDS011;27205;53.690;19.948;2023-03-01T17:14:25;33.50;;;31.30;;
41466;SDS011;27205;53.690;19.948;2023-03-01T17:19:29;16.80;;;15.70;;
41466;SDS011;27205;53.690;19.948;2023-03-01T17:24:35;11.40;;;10.60;;
41466;SDS011;27205;53.690;19.948;2023-03-01T17:29:40;11.40;;;10.60;;
41466;SDS011;27205;53.690;19.948;2023-03-01T17:34:44;15.20;;;14.10;;
41466;SDS011;27205;53.690;19.948;2023-03-01T17:39:48;21.40;;;19.80;;
41466;SDS011;27205;53.690;19.948;2023-03-01T17:44:51;22.30;;;20.70;;
41466;SDS011;27205;53.690;19.948;2023-03-01T17:49:55;13.80;;;12.80;;
41466;SDS011;27205;53.690;19.948;2023-03-01T17:54:58;18.40;;;17.10;;
41466;SDS011;27205;53.690;19.948;2023-03-01T18:00:03;23.40;;;21.70;;
41466;SDS011;27205;53.690;19.948;2023-03-01T18:05:07;16.90;;;15.70;;
41466;SDS011;27205;53.690;19.948;2023-03-01T18:10:11;26.10;;;24.10;;
41466;SDS011;27205;53.690;19.948;2023-03-01T18:15:15;17.40;;;16.10;;
41466;SDS011;27205;53.690;19.948;2023-03-01T18:20:22;36.80;;;34.10;;
41466;SDS011;27205;53.690;19.948;2023-03-01T18:25:25;19.30;;;18.00;;
41466;SDS011;27205;53.690;19.948;2023-03-01T18:30:29;15.90;;;14.70;;
41466;SDS011;27205;53.690;19.948;2023-03-01T18:35:37;13.50;;;12.50;;
41466;SDS011;27205;53.690;19.948;2023-03-01T18:40:42;14.20;;;13.20;;
41466;SDS011;27205;53.690;19.948;2023-03-01T18:45:45;16.10;;;14.80;;
41466;SDS011;27205;53.690;19.948;2023-03-01T18:50:49;24.10;;;21.80;;
41466;SDS011;27205;53.690;19.948;2023-03-01T18:55:57;15.30;;;14.10;;
41466;SDS011;27205;53.690;19.948;2023-03-01T19:01:01;26.70;;;24.60;;
41466;SDS011;27205;53.690;19.948;2023-03-01T19:06:08;21.50;;;19.70;;
41466;SDS011;27205;53.690;19.948;2023-03-01T19:11:13;24.10;;;21.90;;
41466;SDS011;27205;53.690;19.948;2023-03-01T19:16:21;14.90;;;13.80;;
41466;SDS011;27205;53.690;19.948;2023-03-01T19:21:30;18.40;;;17.00;;
41466;SDS011;27205;53.690;19.948;2023-03-01T19:26:35;18.50;;;17.10;;
41466;SDS011;27205;53.690;19.948;2023-03-01T19:31:38;21.00;;;19.30;;
41466;SDS011;27205;53.690;19.948;2023-03-01T19:36:42;15.70;;;14.50;;
41466;SDS011;27205;53.690;19.948;2023-03-01T19:46:52;28.10;;;24.60;;
41466;SDS011;27205;53.690;19.948;2023-03-01T19:51:57;25.90;;;23.90;;
41466;SDS011;27205;53.690;19.948;2023-03-01T19:57:00;24.90;;;23.00;;
41466;SDS011;27205;53.690;19.948;2023-03-01T20:02:04;23.80;;;22.10;;
41466;SDS011;27205;53.690;19.948;2023-03-01T20:07:08;28.60;;;26.00;;
41466;SDS011;27205;53.690;19.948;2023-03-01T20:12:12;20.70;;;19.00;;
41466;SDS011;27205;53.690;19.948;2023-03-01T20:17:16;35.60;;;32.50;;
41466;SDS011;27205;53.690;19.948;2023-03-01T20:22:19;43.10;;;39.90;;
41466;SDS011;27205;53.690;19.948;2023-03-01T20:27:23;37.20;;;34.30;;
41466;SDS011;27205;53.690;19.948;2023-03-01T20:32:27;26.50;;;24.30;;
41466;SDS011;27205;53.690;19.948;2023-03-01T20:37:31;20.60;;;19.00;;
41466;SDS011;27205;53.690;19.948;2023-03-01T20:42:35;18.20;;;16.80;;
41466;SDS011;27205;53.690;19.948;2023-03-01T20:47:38;18.40;;;17.00;;
41466;SDS011;27205;53.690;19.948;2023-03-01T20:52:42;17.20;;;15.90;;
41466;SDS011;27205;53.690;19.948;2023-03-01T20:57:49;16.30;;;15.00;;
41466;SDS011;27205;53.690;19.948;2023-03-01T21:02:53;22.40;;;20.40;;
41466;SDS011;27205;53.690;19.948;2023-03-01T21:07:56;22.20;;;20.40;;
41466;SDS011;27205;53.690;19.948;2023-03-01T21:13:03;24.60;;;22.50;;
41466;SDS011;27205;53.690;19.948;2023-03-01T21:18:06;30.70;;;28.20;;
41466;SDS011;27205;53.690;19.948;2023-03-01T21:23:10;32.10;;;29.60;;
41466;SDS011;27205;53.690;19.948;2023-03-01T21:28:13;28.90;;;26.60;;
41466;SDS011;27205;53.690;19.948;2023-03-01T21:33:17;35.30;;;32.70;;
41466;SDS011;27205;53.690;19.948;2023-03-01T21:38:20;32.30;;;29.80;;
41466;SDS011;27205;53.690;19.948;2023-03-01T21:43:24;21.00;;;19.40;;
41466;SDS011;27205;53.690;19.948;2023-03-01T21:48:28;26.60;;;24.30;;
41466;SDS011;27205;53.690;19.948;2023-03-01T21:53:32;25.70;;;23.70;;
41466;SDS011;27205;53.690;19.948;2023-03-01T21:58:37;26.60;;;24.40;;
41466;SDS011;27205;53.690;19.948;2023-03-01T22:03:43;28.30;;;26.10;;
41466;SDS011;27205;53.690;19.948;2023-03-01T22:13:53;25.60;;;23.30;;
41466;SDS011;27205;53.690;19.948;2023-03-01T22:18:58;21.00;;;19.40;;
41466;SDS011;27205;53.690;19.948;2023-03-01T22:24:02;21.40;;;19.70;;
41466;SDS011;27205;53.690;19.948;2023-03-01T22:29:13;19.00;;;17.60;;
41466;SDS011;27205;53.690;19.948;2023-03-01T22:34:21;16.60;;;15.40;;
41466;SDS011;27205;53.690;19.948;2023-03-01T22:39:25;18.00;;;16.50;;
41466;SDS011;27205;53.690;19.948;2023-03-01T22:44:28;16.90;;;15.60;;
41466;SDS011;27205;53.690;19.948;2023-03-01T22:49:32;16.20;;;15.00;;
41466;SDS011;27205;53.690;19.948;2023-03-01T22:54:36;14.60;;;13.50;;
41466;SDS011;27205;53.690;19.948;2023-03-01T22:59:39;11.90;;;11.10;;
41466;SDS011;27205;53.690;19.948;2023-03-01T23:04:43;11.30;;;10.40;;
41466;SDS011;27205;53.690;19.948;2023-03-01T23:09:49;6.10;;;5.70;;
41466;SDS011;27205;53.690;19.948;2023-03-01T23:14:53;3.20;;;2.90;;
41466;SDS011;27205;53.690;19.948;2023-03-01T23:19:56;2.50;;;2.30;;
41466;SDS011;27205;53.690;19.948;2023-03-01T23:25:00;4.10;;;2.00;;
41466;SDS011;27205;53.690;19.948;2023-03-01T23:30:07;1.80;;;1.70;;
41466;SDS011;27205;53.690;19.948;2023-03-01T23:35:11;2.20;;;1.40;;
41466;SDS011;27205;53.690;19.948;2023-03-01T23:40:14;1.40;;;1.30;;
41466;SDS011;27205;53.690;19.948;2023-03-01T23:50:22;2.20;;;2.00;;
41466;SDS011;27205;53.690;19.948;2023-03-01T23:55:27;3.40;;;2.50;;
